createdAt,value
2019-03-05T00:00:44.493Z,0
2019-03-05T00:01:45.301Z,0
2019-03-05T00:02:45.057Z,0
2019-03-05T00:03:44.824Z,0
2019-03-05T00:04:44.835Z,0
2019-03-05T00:05:45.134Z,0
2019-03-05T00:06:44.611Z,0
2019-03-05T00:07:45.418Z,0
2019-03-05T00:08:44.916Z,0
2019-03-05T00:09:45.190Z,0
2019-03-05T00:10:45.216Z,0
2019-03-05T00:11:44.963Z,0
2019-03-05T00:12:44.980Z,0
2019-03-05T00:13:45.003Z,0
2019-03-05T00:14:45.026Z,0
2019-03-05T00:15:45.046Z,0
2019-03-05T00:16:45.062Z,0
2019-03-05T00:17:45.602Z,0
2019-03-05T00:18:44.835Z,0
2019-03-05T00:19:45.120Z,0
2019-03-05T00:20:44.931Z,0
2019-03-05T00:21:44.889Z,0
2019-03-05T00:22:45.695Z,0
2019-03-05T00:23:45.203Z,0
2019-03-05T00:24:45.481Z,0
2019-03-05T00:25:45.240Z,0
2019-03-05T00:26:45.247Z,0
2019-03-05T00:27:45.264Z,0
2019-03-05T00:28:45.598Z,0
2019-03-05T00:29:45.818Z,0
2019-03-05T00:30:45.322Z,0
2019-03-05T00:31:45.607Z,0
2019-03-05T00:32:45.621Z,0
2019-03-05T00:33:45.645Z,0
2019-03-05T00:34:45.142Z,0
2019-03-05T00:35:45.942Z,0
2019-03-05T00:36:45.702Z,0
2019-03-05T00:37:45.719Z,0
2019-03-05T00:38:46.103Z,0
2019-03-05T00:39:45.232Z,0
2019-03-05T00:40:45.248Z,0
2019-03-05T00:41:45.267Z,0
2019-03-05T00:42:45.553Z,0
2019-03-05T00:43:45.567Z,0
2019-03-05T00:44:45.583Z,0
2019-03-05T00:45:45.886Z,0
2019-03-05T00:46:45.626Z,0
2019-03-05T00:47:46.170Z,0
2019-03-05T00:48:45.673Z,0
2019-03-05T00:49:45.831Z,0
2019-03-05T00:50:45.698Z,0
2019-03-05T00:51:45.721Z,0
2019-03-05T00:52:46.005Z,0
2019-03-05T00:53:46.281Z,0
2019-03-05T00:54:45.829Z,0
2019-03-05T00:55:46.058Z,0
2019-03-05T00:56:45.812Z,0
2019-03-05T00:57:45.836Z,0
2019-03-05T00:58:46.122Z,0
2019-03-05T00:59:45.867Z,0
2019-03-05T01:00:46.153Z,0
2019-03-05T01:01:46.620Z,0
2019-03-05T01:02:45.663Z,0
2019-03-05T01:03:46.207Z,0
2019-03-05T01:04:45.697Z,0
2019-03-05T01:05:46.241Z,0
2019-03-05T01:06:46.266Z,0
2019-03-05T01:07:46.291Z,0
2019-03-05T01:08:46.300Z,0
2019-03-05T01:09:46.055Z,0
2019-03-05T01:10:46.079Z,0
2019-03-05T01:11:46.095Z,0
2019-03-05T01:12:46.376Z,0
2019-03-05T01:13:46.428Z,0
2019-03-05T01:14:46.150Z,0
2019-03-05T01:15:46.170Z,0
2019-03-05T01:16:45.926Z,0
2019-03-05T01:17:46.473Z,0
2019-03-05T01:18:46.035Z,0
2019-03-05T01:19:46.774Z,0
2019-03-05T01:20:46.271Z,0
2019-03-05T01:21:46.286Z,0
2019-03-05T01:22:46.564Z,0
2019-03-05T01:23:46.069Z,0
2019-03-05T01:24:46.874Z,0
2019-03-05T01:25:46.361Z,0
2019-03-05T01:26:46.897Z,0
2019-03-05T01:27:46.134Z,0
2019-03-05T01:28:46.946Z,0
2019-03-05T01:29:46.434Z,0
2019-03-05T01:30:46.452Z,0
2019-03-05T01:31:46.472Z,0
2019-03-05T01:32:46.490Z,0
2019-03-05T01:33:46.774Z,0
2019-03-05T01:34:46.268Z,0
2019-03-05T01:35:46.807Z,0
2019-03-05T01:36:46.574Z,0
2019-03-05T01:37:46.320Z,0
2019-03-05T01:38:46.342Z,0
2019-03-05T01:39:46.894Z,0
2019-03-05T01:40:46.905Z,0
2019-03-05T01:41:46.668Z,0
2019-03-05T01:42:46.945Z,0
2019-03-05T01:43:46.432Z,0
2019-03-05T01:44:46.977Z,0
2019-03-05T01:45:46.733Z,0
2019-03-05T01:46:47.015Z,0
2019-03-05T01:47:46.562Z,0
2019-03-05T01:48:46.790Z,0
2019-03-05T01:49:46.807Z,0
2019-03-05T01:50:46.826Z,0
2019-03-05T01:51:46.585Z,0
2019-03-05T01:52:47.390Z,0
2019-03-05T01:53:46.953Z,0
2019-03-05T01:54:47.493Z,0
2019-03-05T01:55:46.992Z,0
2019-03-05T01:56:46.940Z,0
2019-03-05T01:57:46.960Z,0
2019-03-05T01:58:46.981Z,0
2019-03-05T01:59:47.267Z,0
2019-03-05T02:00:47.283Z,0
2019-03-05T02:01:47.030Z,0
2019-03-05T02:02:47.315Z,0
2019-03-05T02:03:46.811Z,0
2019-03-05T02:04:47.617Z,0
2019-03-05T02:05:47.453Z,0
2019-03-05T02:06:47.404Z,0
2019-03-05T02:07:47.411Z,0
2019-03-05T02:08:47.162Z,0
2019-03-05T02:09:47.455Z,0
2019-03-05T02:10:47.209Z,0
2019-03-05T02:11:47.485Z,0
2019-03-05T02:12:47.499Z,0
2019-03-05T02:13:47.262Z,0
2019-03-05T02:14:47.545Z,0
2019-03-05T02:15:47.033Z,0
2019-03-05T02:16:47.579Z,0
2019-03-05T02:17:47.070Z,0
2019-03-05T02:18:47.360Z,0
2019-03-05T02:19:47.644Z,0
2019-03-05T02:20:47.393Z,0
2019-03-05T02:21:47.680Z,0
2019-03-05T02:22:47.431Z,0
2019-03-05T02:23:47.185Z,0
2019-03-05T02:24:47.991Z,0
2019-03-05T02:25:47.485Z,0
2019-03-05T02:26:48.037Z,0
2019-03-05T02:27:47.260Z,0
2019-03-05T02:28:47.283Z,0
2019-03-05T02:29:48.091Z,0
2019-03-05T02:30:47.595Z,0
2019-03-05T02:31:47.619Z,0
2019-03-05T02:32:47.886Z,0
2019-03-05T02:33:47.913Z,0
2019-03-05T02:34:47.925Z,0
2019-03-05T02:35:47.683Z,0
2019-03-05T02:36:48.306Z,0
2019-03-05T02:37:47.977Z,0
2019-03-05T02:38:47.999Z,0
2019-03-05T02:39:47.761Z,0
2019-03-05T02:40:48.298Z,0
2019-03-05T02:41:48.049Z,0
2019-03-05T02:42:48.100Z,0
2019-03-05T02:43:47.844Z,0
2019-03-05T02:44:48.122Z,0
2019-03-05T02:45:48.159Z,0
2019-03-05T02:46:47.623Z,0
2019-03-05T02:47:48.442Z,0
2019-03-05T02:48:47.927Z,0
2019-03-05T02:49:47.975Z,0
2019-03-05T02:50:47.971Z,0
2019-03-05T02:51:47.979Z,0
2019-03-05T02:52:48.258Z,0
2019-03-05T02:53:48.291Z,0
2019-03-05T02:54:48.302Z,0
2019-03-05T02:55:48.078Z,0
2019-03-05T02:56:48.085Z,0
2019-03-05T02:57:48.653Z,0
2019-03-05T02:58:48.121Z,0
2019-03-05T02:59:48.124Z,0
2019-03-05T03:00:48.176Z,0
2019-03-05T03:01:48.447Z,0
2019-03-05T03:02:47.955Z,0
2019-03-05T03:03:47.951Z,0
2019-03-05T03:04:48.506Z,0
2019-03-05T03:05:48.247Z,0
2019-03-05T03:06:48.257Z,0
2019-03-05T03:07:48.291Z,0
2019-03-05T03:08:48.062Z,0
2019-03-05T03:09:48.849Z,0
2019-03-05T03:10:48.652Z,0
2019-03-05T03:11:48.097Z,0
2019-03-05T03:12:48.694Z,0
2019-03-05T03:13:48.389Z,0
2019-03-05T03:14:48.409Z,0
2019-03-05T03:15:48.694Z,0
2019-03-05T03:16:49.083Z,0
2019-03-05T03:17:48.505Z,0
2019-03-05T03:18:48.917Z,0
2019-03-05T03:19:48.242Z,0
2019-03-05T03:20:48.531Z,0
2019-03-05T03:21:48.821Z,0
2019-03-05T03:22:48.562Z,0
2019-03-05T03:23:48.307Z,0
2019-03-05T03:24:48.869Z,0
2019-03-05T03:25:48.882Z,0
2019-03-05T03:26:48.668Z,0
2019-03-05T03:27:48.422Z,0
2019-03-05T03:28:48.669Z,0
2019-03-05T03:29:48.712Z,0
2019-03-05T03:30:49.043Z,0
2019-03-05T03:31:48.763Z,0
2019-03-05T03:32:48.767Z,0
2019-03-05T03:33:48.808Z,0
2019-03-05T03:34:48.821Z,0
2019-03-05T03:35:49.469Z,0
2019-03-05T03:36:49.343Z,0
2019-03-05T03:37:48.828Z,0
2019-03-05T03:38:48.693Z,0
2019-03-05T03:39:49.405Z,0
2019-03-05T03:40:48.908Z,0
2019-03-05T03:41:48.653Z,0
2019-03-05T03:42:49.473Z,0
2019-03-05T03:43:48.949Z,0
2019-03-05T03:44:49.239Z,0
2019-03-05T03:45:49.248Z,0
2019-03-05T03:46:48.743Z,0
2019-03-05T03:47:49.442Z,0
2019-03-05T03:48:49.306Z,0
2019-03-05T03:49:49.318Z,0
2019-03-05T03:50:49.384Z,0
2019-03-05T03:51:51.316Z,0
2019-03-05T03:52:49.117Z,0
2019-03-05T03:53:49.851Z,0
2019-03-05T03:54:49.178Z,0
2019-03-05T03:55:49.171Z,0
2019-03-05T03:56:49.456Z,0
2019-03-05T03:57:49.219Z,0
2019-03-05T03:58:49.500Z,0
2019-03-05T03:59:49.510Z,0
2019-03-05T04:00:49.594Z,0
2019-03-05T04:01:49.545Z,0
2019-03-05T04:02:49.312Z,0
2019-03-05T04:03:49.322Z,0
2019-03-05T04:04:49.347Z,0
2019-03-05T04:05:49.627Z,0
2019-03-05T04:06:49.663Z,0
2019-03-05T04:07:49.132Z,0
2019-03-05T04:08:50.097Z,0
2019-03-05T04:09:49.714Z,0
2019-03-05T04:10:49.551Z,0
2019-03-05T04:11:49.748Z,0
2019-03-05T04:12:49.529Z,0
2019-03-05T04:13:49.826Z,0
2019-03-05T04:14:49.802Z,0
2019-03-05T04:15:49.556Z,0
2019-03-05T04:16:49.825Z,0
2019-03-05T04:17:49.631Z,0
2019-03-05T04:18:49.861Z,0
2019-03-05T04:19:49.618Z,0
2019-03-05T04:20:50.172Z,0
2019-03-05T04:21:49.922Z,0
2019-03-05T04:22:50.201Z,0
2019-03-05T04:23:50.206Z,0
2019-03-05T04:24:49.972Z,0
2019-03-05T04:25:49.727Z,0
2019-03-05T04:26:49.933Z,0
2019-03-05T04:27:50.291Z,0
2019-03-05T04:28:49.784Z,0
2019-03-05T04:29:49.808Z,0
2019-03-05T04:30:50.170Z,0
2019-03-05T04:31:49.836Z,0
2019-03-05T04:32:49.864Z,0
2019-03-05T04:33:50.156Z,0
2019-03-05T04:34:50.417Z,0
2019-03-05T04:35:49.904Z,0
2019-03-05T04:36:49.930Z,0
2019-03-05T04:37:49.945Z,0
2019-03-05T04:38:50.515Z,0
2019-03-05T04:39:49.983Z,0
2019-03-05T04:40:50.260Z,0
2019-03-05T04:41:50.020Z,0
2019-03-05T04:42:50.560Z,0
2019-03-05T04:43:49.796Z,0
2019-03-05T04:44:49.810Z,0
2019-03-05T04:45:50.353Z,0
2019-03-05T04:46:50.370Z,0
2019-03-05T04:47:50.136Z,0
2019-03-05T04:48:50.144Z,0
2019-03-05T04:49:50.430Z,0
2019-03-05T04:50:50.445Z,0
2019-03-05T04:51:50.204Z,0
2019-03-05T04:52:50.224Z,0
2019-03-05T04:53:50.505Z,0
2019-03-05T04:54:50.259Z,0
2019-03-05T04:55:50.542Z,0
2019-03-05T04:56:50.035Z,0
2019-03-05T04:57:50.313Z,0
2019-03-05T04:58:50.342Z,0
2019-03-05T04:59:50.356Z,0
2019-03-05T05:00:50.630Z,0
2019-03-05T05:01:50.384Z,0
2019-03-05T05:02:50.697Z,0
2019-03-05T05:03:50.687Z,0
2019-03-05T05:04:50.700Z,0
2019-03-05T05:05:50.208Z,0
2019-03-05T05:06:50.746Z,0
2019-03-05T05:07:50.234Z,0
2019-03-05T05:08:50.521Z,0
2019-03-05T05:09:50.796Z,0
2019-03-05T05:10:50.816Z,0
2019-03-05T05:11:51.094Z,0
2019-03-05T05:12:50.848Z,0
2019-03-05T05:13:50.886Z,0
2019-03-05T05:14:51.149Z,0
2019-03-05T05:15:50.649Z,0
2019-03-05T05:16:50.659Z,0
2019-03-05T05:17:50.680Z,0
2019-03-05T05:18:50.699Z,0
2019-03-05T05:19:50.456Z,0
2019-03-05T05:20:50.506Z,0
2019-03-05T05:21:50.494Z,0
2019-03-05T05:22:50.514Z,0
2019-03-05T05:23:50.788Z,0
2019-03-05T05:24:50.542Z,0
2019-03-05T05:25:51.091Z,0
2019-03-05T05:26:50.585Z,0
2019-03-05T05:27:51.150Z,0
2019-03-05T05:28:50.883Z,0
2019-03-05T05:29:51.164Z,0
2019-03-05T05:30:50.919Z,0
2019-03-05T05:31:50.943Z,0
2019-03-05T05:32:50.957Z,0
2019-03-05T05:33:50.974Z,0
2019-03-05T05:34:51.530Z,0
2019-03-05T05:35:51.019Z,0
2019-03-05T05:36:51.295Z,0
2019-03-05T05:37:50.803Z,0
2019-03-05T05:38:50.803Z,0
2019-03-05T05:39:51.080Z,0
2019-03-05T05:40:51.372Z,0
2019-03-05T05:41:50.858Z,0
2019-03-05T05:42:51.136Z,0
2019-03-05T05:43:51.421Z,4
2019-03-05T05:44:51.701Z,0
2019-03-05T05:45:51.464Z,0
2019-03-05T05:46:51.213Z,4
2019-03-05T05:47:51.493Z,4
2019-03-05T05:48:51.774Z,4
2019-03-05T05:49:51.264Z,4
2019-03-05T05:50:51.365Z,4
2019-03-05T05:51:51.041Z,4
2019-03-05T05:52:51.320Z,8
2019-03-05T05:53:51.602Z,4
2019-03-05T05:54:51.098Z,4
2019-03-05T05:55:51.646Z,4
2019-03-05T05:56:51.662Z,8
2019-03-05T05:57:51.679Z,12
2019-03-05T05:58:51.436Z,12
2019-03-05T05:59:51.567Z,12
2019-03-05T06:00:51.578Z,12
2019-03-05T06:01:51.814Z,16
2019-03-05T06:02:52.033Z,20
2019-03-05T06:03:52.111Z,20
2019-03-05T06:04:51.813Z,24
2019-03-05T06:05:51.833Z,28
2019-03-05T06:06:51.579Z,24
2019-03-05T06:07:51.598Z,32
2019-03-05T06:08:51.881Z,36
2019-03-05T06:09:51.903Z,44
2019-03-05T06:10:53.058Z,44
2019-03-05T06:11:51.942Z,40
2019-03-05T06:12:51.950Z,28
2019-03-05T06:13:52.238Z,28
2019-03-05T06:14:51.563Z,36
2019-03-05T06:15:51.746Z,28
2019-03-05T06:16:52.024Z,36
2019-03-05T06:17:51.840Z,28
2019-03-05T06:18:52.062Z,32
2019-03-05T06:19:52.076Z,48
2019-03-05T06:20:51.847Z,60
2019-03-05T06:21:52.120Z,60
2019-03-05T06:22:51.870Z,48
2019-03-05T06:23:51.626Z,40
2019-03-05T06:24:51.643Z,44
2019-03-05T06:25:51.953Z,56
2019-03-05T06:26:52.207Z,84
2019-03-05T06:27:52.226Z,112
2019-03-05T06:28:52.508Z,132
2019-03-05T06:29:52.270Z,120
2019-03-05T06:30:51.769Z,120
2019-03-05T06:31:52.041Z,136
2019-03-05T06:32:52.078Z,152
2019-03-05T06:33:52.619Z,184
2019-03-05T06:34:52.093Z,160
2019-03-05T06:35:52.124Z,172
2019-03-05T06:36:52.131Z,152
2019-03-05T06:37:52.416Z,128
2019-03-05T06:38:52.172Z,128
2019-03-05T06:39:52.189Z,252
2019-03-05T06:40:52.473Z,332
2019-03-05T06:41:52.221Z,372
2019-03-05T06:42:52.238Z,348
2019-03-05T06:43:52.265Z,360
2019-03-05T06:44:52.276Z,416
2019-03-05T06:45:52.298Z,408
2019-03-05T06:46:52.838Z,340
2019-03-05T06:47:52.339Z,312
2019-03-05T06:48:52.615Z,404
2019-03-05T06:49:52.372Z,480
2019-03-05T06:50:52.394Z,520
2019-03-05T06:51:52.406Z,436
2019-03-05T06:52:52.778Z,356
2019-03-05T06:53:52.703Z,392
2019-03-05T06:54:52.723Z,400
2019-03-05T06:55:52.484Z,348
2019-03-05T06:56:52.550Z,328
2019-03-05T06:57:52.519Z,400
2019-03-05T06:58:53.064Z,460
2019-03-05T06:59:52.571Z,332
2019-03-05T07:00:52.570Z,364
2019-03-05T07:01:52.366Z,464
2019-03-05T07:02:52.606Z,492
2019-03-05T07:03:52.624Z,516
2019-03-05T07:04:52.644Z,660
2019-03-05T07:05:53.203Z,724
2019-03-05T07:06:52.677Z,720
2019-03-05T07:07:52.711Z,808
2019-03-05T07:08:52.812Z,892
2019-03-05T07:09:53.269Z,928
2019-03-05T07:10:53.020Z,880
2019-03-05T07:11:52.782Z,860
2019-03-05T07:12:52.790Z,980
2019-03-05T07:13:53.072Z,1024
2019-03-05T07:14:52.822Z,1020
2019-03-05T07:15:52.850Z,992
2019-03-05T07:16:52.859Z,968
2019-03-05T07:17:53.143Z,1004
2019-03-05T07:18:53.163Z,1032
2019-03-05T07:20:04.512Z,1232
2019-03-05T07:20:52.957Z,1196
2019-03-05T07:21:52.957Z,1156
2019-03-05T07:22:53.231Z,1212
2019-03-05T07:23:53.013Z,1260
2019-03-05T07:24:53.029Z,1252
2019-03-05T07:25:53.128Z,1220
2019-03-05T07:26:53.057Z,1208
2019-03-05T07:27:52.876Z,1264
2019-03-05T07:28:53.402Z,1316
2019-03-05T07:29:53.104Z,1372
2019-03-05T07:30:53.122Z,1412
2019-03-05T07:31:52.874Z,1344
2019-03-05T07:32:53.429Z,1288
2019-03-05T07:33:53.434Z,1176
2019-03-05T07:34:53.191Z,984
2019-03-05T07:35:53.482Z,748
2019-03-05T07:36:53.492Z,956
2019-03-05T07:37:53.789Z,1064
2019-03-05T07:38:53.798Z,992
2019-03-05T07:39:53.551Z,876
2019-03-05T07:40:53.303Z,684
2019-03-05T07:41:55.065Z,560
2019-03-05T07:42:53.354Z,716
2019-03-05T07:43:53.361Z,744
2019-03-05T07:44:53.379Z,912
2019-03-05T07:45:53.658Z,868
2019-03-05T07:46:53.417Z,1160
2019-03-05T07:47:53.438Z,992
2019-03-05T07:48:53.717Z,1116
2019-03-05T07:49:53.471Z,896
2019-03-05T07:50:53.224Z,716
2019-03-05T07:51:53.517Z,624
2019-03-05T07:52:53.525Z,928
2019-03-05T07:53:53.811Z,608
2019-03-05T07:54:54.729Z,924
2019-03-05T07:55:53.580Z,900
2019-03-05T07:56:53.861Z,816
2019-03-05T07:57:53.886Z,1256
2019-03-05T07:58:53.371Z,1044
2019-03-05T07:59:54.185Z,684
2019-03-05T08:00:53.765Z,480
2019-03-05T08:01:53.694Z,788
2019-03-05T08:02:53.712Z,1172
2019-03-05T08:03:53.739Z,852
2019-03-05T08:04:53.483Z,972
2019-03-05T08:05:54.429Z,872
2019-03-05T08:06:53.789Z,772
2019-03-05T08:07:54.073Z,1380
2019-03-05T08:08:53.560Z,1496
2019-03-05T08:09:54.106Z,1444
2019-03-05T08:10:54.129Z,1376
2019-03-05T08:11:54.144Z,1500
2019-03-05T08:12:53.976Z,1528
2019-03-05T08:13:54.177Z,1516
2019-03-05T08:14:53.938Z,1708
2019-03-05T08:16:04.898Z,1664
2019-03-05T08:16:53.978Z,1600
2019-03-05T08:17:54.011Z,1800
2019-03-05T08:18:54.278Z,2036
2019-03-05T08:19:54.036Z,2080
2019-03-05T08:20:53.894Z,2128
2019-03-05T08:21:53.803Z,2136
2019-03-05T08:22:54.090Z,1848
2019-03-05T08:23:55.098Z,1296
2019-03-05T08:24:54.121Z,1012
2019-03-05T08:25:53.887Z,1200
2019-03-05T08:26:54.427Z,1476
2019-03-05T08:27:55.176Z,1448
2019-03-05T08:28:54.455Z,1616
2019-03-05T08:29:53.956Z,1624
2019-03-05T08:30:54.508Z,1492
2019-03-05T08:31:53.985Z,1604
2019-03-05T08:32:54.278Z,1456
2019-03-05T08:33:54.023Z,1388
2019-03-05T08:34:54.574Z,1380
2019-03-05T08:35:54.586Z,1476
2019-03-05T08:36:54.636Z,1448
2019-03-05T08:37:54.627Z,1412
2019-03-05T08:38:54.645Z,1288
2019-03-05T08:39:54.664Z,1248
2019-03-05T08:40:54.686Z,1080
2019-03-05T08:41:54.434Z,964
2019-03-05T08:42:54.451Z,1076
2019-03-05T08:43:56.851Z,1320
2019-03-05T08:44:57.848Z,1652
2019-03-05T08:45:54.787Z,2048
2019-03-05T08:46:54.529Z,2112
2019-03-05T08:47:54.550Z,2096
2019-03-05T08:48:55.109Z,1464
2019-03-05T08:49:54.585Z,1208
2019-03-05T08:50:54.343Z,1136
2019-03-05T08:51:54.360Z,1008
2019-03-05T08:52:54.690Z,1484
2019-03-05T08:53:56.853Z,1436
2019-03-05T08:54:54.680Z,1672
2019-03-05T08:55:54.434Z,1420
2019-03-05T08:56:54.718Z,1968
2019-03-05T08:57:54.995Z,1880
2019-03-05T08:58:54.753Z,1252
2019-03-05T08:59:55.037Z,896
2019-03-05T09:00:54.837Z,836
2019-03-05T09:01:55.070Z,1508
2019-03-05T09:02:56.392Z,1604
2019-03-05T09:03:55.106Z,1100
2019-03-05T09:04:54.599Z,1020
2019-03-05T09:05:55.151Z,1012
2019-03-05T09:06:55.005Z,1104
2019-03-05T09:07:54.920Z,1116
2019-03-05T09:08:55.267Z,900
2019-03-05T09:09:54.952Z,1020
2019-03-05T09:10:55.498Z,1400
2019-03-05T09:11:54.992Z,1416
2019-03-05T09:12:54.822Z,1392
2019-03-05T09:13:55.567Z,1544
2019-03-05T09:14:54.789Z,1692
2019-03-05T09:15:54.798Z,1812
2019-03-05T09:16:54.867Z,1688
2019-03-05T09:17:55.106Z,1552
2019-03-05T09:18:55.385Z,1092
2019-03-05T09:19:55.661Z,1096
2019-03-05T09:20:55.419Z,1576
2019-03-05T09:21:55.909Z,1724
2019-03-05T09:22:55.192Z,1936
2019-03-05T09:23:55.483Z,1832
2019-03-05T09:24:55.238Z,1332
2019-03-05T09:25:55.246Z,1432
2019-03-05T09:26:58.918Z,1508
2019-03-05T09:27:57.382Z,1288
2019-03-05T09:28:55.576Z,1288
2019-03-05T09:29:55.360Z,1892
2019-03-05T09:30:55.604Z,2036
2019-03-05T09:31:55.360Z,1848
2019-03-05T09:32:55.646Z,2312
2019-03-05T09:33:55.401Z,2092
2019-03-05T09:34:55.418Z,1524
2019-03-05T09:35:55.436Z,1324
2019-03-05T09:36:58.368Z,1612
2019-03-05T09:37:55.759Z,1612
2019-03-05T09:38:55.497Z,1524
2019-03-05T09:39:56.030Z,1536
2019-03-05T09:40:55.529Z,2112
2019-03-05T09:41:55.552Z,1904
2019-03-05T09:42:55.828Z,1652
2019-03-05T09:43:55.867Z,1276
2019-03-05T09:44:56.128Z,1536
2019-03-05T09:45:55.663Z,1628
2019-03-05T09:46:56.163Z,2380
2019-03-05T09:47:55.399Z,2880
2019-03-05T09:48:55.824Z,2420
2019-03-05T09:49:55.956Z,2496
2019-03-05T09:50:55.712Z,2888
2019-03-05T09:51:55.998Z,3380
2019-03-05T09:53:01.839Z,3980
2019-03-05T09:53:56.048Z,3316
2019-03-05T09:54:56.313Z,2196
2019-03-05T09:55:55.815Z,1964
2019-03-05T09:56:56.359Z,1480
2019-03-05T09:58:06.837Z,2232
2019-03-05T09:58:55.913Z,1880
2019-03-05T09:59:55.888Z,1464
2019-03-05T10:00:55.904Z,1804
2019-03-05T10:01:56.189Z,1652
2019-03-05T10:02:55.944Z,1480
2019-03-05T10:03:55.974Z,1272
2019-03-05T10:04:56.242Z,1204
2019-03-05T10:05:56.023Z,1384
2019-03-05T10:06:56.023Z,1180
2019-03-05T10:07:55.768Z,1164
2019-03-05T10:08:55.787Z,1600
2019-03-05T10:09:56.337Z,1648
2019-03-05T10:10:56.087Z,1304
2019-03-05T10:12:03.504Z,1120
2019-03-05T10:12:58.857Z,1000
2019-03-05T10:13:56.148Z,920
2019-03-05T10:14:56.429Z,836
2019-03-05T10:15:58.193Z,820
2019-03-05T10:16:56.466Z,772
2019-03-05T10:17:57.242Z,828
2019-03-05T10:18:56.239Z,868
2019-03-05T10:19:56.523Z,928
2019-03-05T10:20:56.275Z,988
2019-03-05T10:21:56.822Z,1096
2019-03-05T10:22:57.969Z,1244
2019-03-05T10:23:56.596Z,1324
2019-03-05T10:25:08.000Z,1216
2019-03-05T10:25:56.895Z,1164
2019-03-05T10:26:56.450Z,904
2019-03-05T10:27:56.407Z,816
2019-03-05T10:28:56.175Z,740
2019-03-05T10:29:59.132Z,932
2019-03-05T10:30:56.200Z,852
2019-03-05T10:31:56.491Z,868
2019-03-05T10:32:56.554Z,788
2019-03-05T10:33:56.522Z,704
2019-03-05T10:34:56.539Z,772
2019-03-05T10:35:56.823Z,892
2019-03-05T10:36:57.100Z,1060
2019-03-05T10:37:56.856Z,1208
2019-03-05T10:39:04.135Z,1168
2019-03-05T10:39:56.899Z,1488
2019-03-05T10:40:56.653Z,1692
2019-03-05T10:41:56.932Z,1516
2019-03-05T10:43:07.670Z,1496
2019-03-05T10:43:56.984Z,1612
2019-03-05T10:44:56.990Z,2348
2019-03-05T10:45:56.495Z,2432
2019-03-05T10:46:58.435Z,2672
2019-03-05T10:47:57.047Z,3532
2019-03-05T10:48:57.345Z,2760
2019-03-05T10:49:56.555Z,2748
2019-03-05T10:50:57.367Z,2468
2019-03-05T10:51:58.763Z,2732
2019-03-05T10:52:57.133Z,1976
2019-03-05T10:53:57.159Z,1980
2019-03-05T10:54:56.656Z,1856
2019-03-05T10:55:56.673Z,1916
2019-03-05T10:56:57.472Z,2316
2019-03-05T10:57:56.966Z,2724
2019-03-05T10:58:57.326Z,2872
2019-03-05T10:59:56.761Z,2088
2019-03-05T11:00:56.763Z,2068
2019-03-05T11:01:57.310Z,1516
2019-03-05T11:02:57.059Z,1708
2019-03-05T11:03:57.084Z,2212
2019-03-05T11:04:59.188Z,1760
2019-03-05T11:05:57.386Z,2088
2019-03-05T11:06:56.881Z,2208
2019-03-05T11:07:57.158Z,1944
2019-03-05T11:08:57.178Z,1416
2019-03-05T11:09:57.191Z,1480
2019-03-05T11:10:57.224Z,1608
2019-03-05T11:11:57.497Z,1836
2019-03-05T11:12:57.247Z,2564
2019-03-05T11:13:57.800Z,2528
2019-03-05T11:14:57.024Z,2416
2019-03-05T11:15:57.326Z,2732
2019-03-05T11:16:57.329Z,2700
2019-03-05T11:17:57.349Z,2988
2019-03-05T11:18:57.893Z,2868
2019-03-05T11:19:57.381Z,3672
2019-03-05T11:20:57.930Z,3332
2019-03-05T11:21:57.509Z,3564
2019-03-05T11:22:57.698Z,3668
2019-03-05T11:23:57.729Z,3916
2019-03-05T11:24:58.006Z,4196
2019-03-05T11:25:57.316Z,4372
2019-03-05T11:26:57.779Z,4608
2019-03-05T11:27:58.062Z,4416
2019-03-05T11:28:59.152Z,4344
2019-03-05T11:29:57.841Z,4168
2019-03-05T11:30:57.870Z,4516
2019-03-05T11:31:57.874Z,4492
2019-03-05T11:32:57.638Z,4264
2019-03-05T11:33:57.910Z,4140
2019-03-05T11:34:57.745Z,3772
2019-03-05T11:35:57.421Z,4280
2019-03-05T11:36:57.965Z,3764
2019-03-05T11:37:58.131Z,3728
2019-03-05T11:38:57.744Z,4252
2019-03-05T11:40:00.126Z,3020
2019-03-05T11:40:58.310Z,2616
2019-03-05T11:41:57.801Z,2340
2019-03-05T11:42:57.822Z,1844
2019-03-05T11:43:57.838Z,1360
2019-03-05T11:45:16.267Z,2196
2019-03-05T11:45:58.138Z,2872
2019-03-05T11:46:57.895Z,4476
2019-03-05T11:47:57.918Z,3724
2019-03-05T11:48:57.678Z,3808
2019-03-05T11:49:57.955Z,2944
2019-03-05T11:50:59.057Z,2164
2019-03-05T11:51:58.279Z,2280
2019-03-05T11:52:58.276Z,2668
2019-03-05T11:53:58.298Z,3264
2019-03-05T11:54:58.596Z,4312
2019-03-05T11:55:58.339Z,4476
2019-03-05T11:56:58.090Z,4352
2019-03-05T11:57:58.111Z,4388
2019-03-05T11:58:58.128Z,4492
2019-03-05T11:59:58.412Z,4600
2019-03-05T12:00:58.166Z,4588
2019-03-05T12:01:58.449Z,4412
2019-03-05T12:02:57.946Z,4356
2019-03-05T12:03:58.223Z,4104
2019-03-05T12:04:58.511Z,4168
2019-03-05T12:05:58.270Z,3892
2019-03-05T12:06:58.022Z,3584
2019-03-05T12:07:58.832Z,4020
2019-03-05T12:08:58.331Z,4064
2019-03-05T12:09:58.344Z,4104
2019-03-05T12:10:58.892Z,4084
2019-03-05T12:11:58.641Z,3544
2019-03-05T12:12:58.406Z,3360
2019-03-05T12:13:58.423Z,3756
2019-03-05T12:14:58.699Z,4004
2019-03-05T12:15:58.723Z,3888
2019-03-05T12:16:58.484Z,4324
2019-03-05T12:17:58.544Z,4268
2019-03-05T12:18:58.519Z,4232
2019-03-05T12:19:58.799Z,3840
2019-03-05T12:20:58.891Z,3836
2019-03-05T12:21:58.571Z,4108
2019-03-05T12:22:58.856Z,4020
2019-03-05T12:23:59.138Z,3364
2019-03-05T12:25:04.398Z,3220
2019-03-05T12:25:58.389Z,2784
2019-03-05T12:26:58.670Z,2096
2019-03-05T12:28:09.385Z,1944
2019-03-05T12:28:58.719Z,2052
2019-03-05T12:29:58.731Z,2100
2019-03-05T12:30:59.061Z,2596
2019-03-05T12:31:58.774Z,2588
2019-03-05T12:32:58.786Z,2144
2019-03-05T12:33:59.084Z,1776
2019-03-05T12:34:58.563Z,1788
2019-03-05T12:35:58.847Z,2116
2019-03-05T12:36:59.143Z,2340
2019-03-05T12:37:59.414Z,2280
2019-03-05T12:38:59.167Z,2396
2019-03-05T12:39:58.923Z,2652
2019-03-05T12:40:58.682Z,2988
2019-03-05T12:41:59.232Z,2912
2019-03-05T12:42:59.244Z,2556
2019-03-05T12:43:59.003Z,2252
2019-03-05T12:44:59.026Z,2392
2019-03-05T12:45:59.307Z,2876
2019-03-05T12:46:59.058Z,2620
2019-03-05T12:47:58.830Z,2252
2019-03-05T12:48:59.095Z,2572
2019-03-05T12:49:59.118Z,2516
2019-03-05T12:50:59.404Z,3292
2019-03-05T12:51:59.415Z,4064
2019-03-05T12:52:59.177Z,4020
2019-03-05T12:53:59.198Z,3708
2019-03-05T12:55:00.700Z,3236
2019-03-05T12:55:58.967Z,3064
2019-03-05T12:56:58.997Z,2876
2019-03-05T12:57:59.276Z,2660
2019-03-05T12:58:59.024Z,2504
2019-03-05T12:59:59.307Z,2480
2019-03-05T13:00:59.332Z,2720
2019-03-05T13:01:59.353Z,2464
2019-03-05T13:02:59.375Z,3712
2019-03-05T13:03:59.388Z,4260
2019-03-05T13:04:59.939Z,2652
2019-03-05T13:05:59.424Z,2968
2019-03-05T13:06:59.967Z,3616
2019-03-05T13:08:03.464Z,3000
2019-03-05T13:08:59.487Z,2808
2019-03-05T13:10:07.127Z,2832
2019-03-05T13:10:59.790Z,3104
2019-03-05T13:11:59.537Z,2164
2019-03-05T13:12:59.821Z,1708
2019-03-05T13:14:16.714Z,1592
2019-03-05T13:15:00.159Z,1488
2019-03-05T13:16:03.665Z,1436
2019-03-05T13:16:59.896Z,1836
2019-03-05T13:17:59.950Z,2332
2019-03-05T13:19:00.914Z,1924
2019-03-05T13:20:00.830Z,1644
2019-03-05T13:21:03.489Z,1780
2019-03-05T13:21:59.999Z,1936
2019-03-05T13:22:59.757Z,1992
2019-03-05T13:23:59.775Z,1856
2019-03-05T13:25:00.356Z,1856
2019-03-05T13:26:03.055Z,1796
2019-03-05T13:27:00.363Z,1836
2019-03-05T13:28:04.888Z,2484
2019-03-05T13:28:59.867Z,2688
2019-03-05T13:30:00.284Z,2156
2019-03-05T13:31:07.079Z,1804
2019-03-05T13:31:59.937Z,1932
2019-03-05T13:33:05.509Z,1720
2019-03-05T13:34:00.496Z,1804
2019-03-05T13:35:00.327Z,1920
2019-03-05T13:36:00.526Z,1772
2019-03-05T13:37:00.963Z,2168
2019-03-05T13:38:03.169Z,4544
2019-03-05T13:39:00.326Z,4828
2019-03-05T13:40:04.946Z,4056
2019-03-05T13:41:00.362Z,4116
2019-03-05T13:42:00.731Z,4136
2019-03-05T13:43:00.136Z,3852
2019-03-05T13:44:02.706Z,3968
2019-03-05T13:45:05.256Z,3596
2019-03-05T13:46:00.194Z,3868
2019-03-05T13:47:06.710Z,4268
2019-03-05T13:47:59.974Z,4352
2019-03-05T13:49:05.162Z,3224
2019-03-05T13:50:12.151Z,2624
2019-03-05T13:51:00.289Z,2964
2019-03-05T13:52:04.065Z,3220
2019-03-05T13:53:02.936Z,3576
2019-03-05T13:54:13.791Z,3712
2019-03-05T13:55:00.370Z,3884
2019-03-05T13:56:03.958Z,3512
2019-03-05T13:57:00.147Z,3912
2019-03-05T13:58:01.881Z,3872
2019-03-05T13:59:00.717Z,3580
2019-03-05T14:00:00.730Z,4012